TimeEDT,TemperatureF,Dew PointF,Humidity,Sea Level PressureIn,VisibilityMPH,Wind Direction,Wind SpeedMPH,Gust SpeedMPH,PrecipitationIn,Events,Conditions,WindDirDegrees,DateUTC
12:51 AM,72.0,69.1,91,29.94,10.0,SSW,5.8,-,N/A,,Mostly Cloudy,200,2003-06-13 04:51:00
1:51 AM,71.1,69.1,93,29.92,10.0,South,6.9,-,N/A,,Mostly Cloudy,180,2003-06-13 05:51:00
2:51 AM,70.0,68.0,93,29.92,10.0,South,5.8,-,N/A,,Mostly Cloudy,190,2003-06-13 06:51:00
3:51 AM,69.1,66.9,93,29.92,10.0,Calm,Calm,-,N/A,,Mostly Cloudy,0,2003-06-13 07:51:00
4:51 AM,70.0,68.0,93,29.92,10.0,WSW,5.8,-,N/A,,Overcast,250,2003-06-13 08:51:00
5:51 AM,69.1,68.0,96,29.93,10.0,SSW,3.5,-,N/A,,Overcast,200,2003-06-13 09:51:00
6:04 AM,69.8,68.0,94,29.95,9.0,South,3.5,-,N/A,,Mostly Cloudy,190,2003-06-13 10:04:00
6:40 AM,68.0,68.0,100,29.97,7.0,South,5.8,-,N/A,,Overcast,180,2003-06-13 10:40:00
6:51 AM,69.1,69.1,100,29.94,7.0,South,5.8,-,N/A,,Overcast,170,2003-06-13 10:51:00
7:51 AM,71.1,69.1,93,29.96,9.0,South,6.9,-,N/A,,Overcast,170,2003-06-13 11:51:00
8:51 AM,71.1,69.1,93,29.98,9.0,SSW,6.9,-,N/A,,Overcast,200,2003-06-13 12:51:00
9:51 AM,72.0,69.1,91,29.99,9.0,SSW,10.4,-,N/A,,Overcast,200,2003-06-13 13:51:00
10:51 AM,75.9,69.1,79,29.99,10.0,SSW,10.4,-,N/A,,Overcast,210,2003-06-13 14:51:00
11:51 AM,77.0,69.1,76,29.99,10.0,SSW,9.2,18.4,N/A,,Overcast,210,2003-06-13 15:51:00
12:30 PM,78.8,69.8,74,30.01,10.0,SSW,12.7,21.9,N/A,,Mostly Cloudy,200,2003-06-13 16:30:00
12:51 PM,78.1,70.0,76,29.98,10.0,SSW,13.8,18.4,N/A,,Mostly Cloudy,200,2003-06-13 16:51:00
1:51 PM,80.1,71.1,74,29.97,10.0,SSW,10.4,23.0,N/A,,Mostly Cloudy,200,2003-06-13 17:51:00
2:51 PM,82.9,71.1,67,29.94,10.0,SSW,11.5,-,N/A,,Mostly Cloudy,210,2003-06-13 18:51:00
3:51 PM,82.0,70.0,67,29.92,10.0,Variable,6.9,18.4,N/A,,Scattered Clouds,0,2003-06-13 19:51:00
4:51 PM,82.0,71.1,69,29.91,10.0,Variable,4.6,-,N/A,,Mostly Cloudy,0,2003-06-13 20:51:00
5:51 PM,82.9,70.0,65,29.91,10.0,SW,5.8,-,N/A,,Mostly Cloudy,220,2003-06-13 21:51:00
6:51 PM,82.0,69.1,65,29.92,10.0,SSW,9.2,-,N/A,,Mostly Cloudy,200,2003-06-13 22:51:00
7:51 PM,79.0,70.0,74,29.93,10.0,SSW,8.1,-,N/A,,Mostly Cloudy,200,2003-06-13 23:51:00
8:51 PM,77.0,71.1,82,29.93,10.0,South,6.9,-,N/A,,Mostly Cloudy,190,2003-06-14 00:51:00
9:51 PM,77.0,71.1,82,29.95,10.0,SSW,10.4,-,N/A,,Mostly Cloudy,200,2003-06-14 01:51:00
10:51 PM,75.9,70.0,82,29.96,10.0,SSW,9.2,-,N/A,,Mostly Cloudy,200,2003-06-14 02:51:00
11:51 PM,73.0,69.1,87,29.96,10.0,South,5.8,-,N/A,,Overcast,190,2003-06-14 03:51:00